createdAt,value
2022-12-25T00:04:15.493Z,3.33
2022-12-25T00:09:20.227Z,4.53
2022-12-25T00:14:23.535Z,6.60
2022-12-25T00:19:26.834Z,3.77
2022-12-25T00:24:31.470Z,3.57
2022-12-25T00:29:34.656Z,4.57
2022-12-25T00:34:38.038Z,3.10
2022-12-25T00:39:42.685Z,3.10
2022-12-25T00:44:46.241Z,3.37
2022-12-25T00:49:49.662Z,4.10
2022-12-25T00:54:54.495Z,4.00
2022-12-25T00:59:57.602Z,3.83
2022-12-25T01:05:01.192Z,3.73
2022-12-25T01:10:24.359Z,3.40
2022-12-25T01:15:27.974Z,2.97
2022-12-25T01:20:31.346Z,3.73
2022-12-25T01:25:36.103Z,2.90
2022-12-25T01:30:40.534Z,2.83
2022-12-25T01:35:43.658Z,2.20
2022-12-25T01:40:48.228Z,2.70
2022-12-25T01:45:52.823Z,2.37
2022-12-25T01:50:57.758Z,2.37
2022-12-25T01:56:04.455Z,2.60
2022-12-25T02:01:07.882Z,2.30
2022-12-25T02:06:11.134Z,2.43
2022-12-25T02:11:35.638Z,2.53
2022-12-25T02:16:56.781Z,2.33
2022-12-25T02:22:06.330Z,1.90
2022-12-25T02:27:15.616Z,2.20
2022-12-25T02:32:25.540Z,2.03
2022-12-25T02:37:31.935Z,1.87
2022-12-25T02:42:59.747Z,2.00
2022-12-25T02:48:22.374Z,1.67
2022-12-25T02:53:43.022Z,2.20
2022-12-25T02:59:05.247Z,2.00
2022-12-25T03:04:30.081Z,1.93
2022-12-25T03:09:53.060Z,1.97
2022-12-25T03:15:14.106Z,2.40
2022-12-25T03:20:36.642Z,2.37
2022-12-25T03:25:57.986Z,2.37
2022-12-25T03:31:14.424Z,2.17
2022-12-25T03:36:22.119Z,2.37
2022-12-25T03:41:47.149Z,2.30
2022-12-25T03:47:13.389Z,2.23
2022-12-25T03:52:36.853Z,2.50
2022-12-25T03:57:57.955Z,2.50
2022-12-25T04:03:18.552Z,2.00
2022-12-25T04:08:41.052Z,1.70
2022-12-25T04:14:01.931Z,2.10
2022-12-25T04:19:22.643Z,2.20
2022-12-25T04:24:41.118Z,2.40
2022-12-25T04:30:02.165Z,2.67
2022-12-25T04:35:23.040Z,2.80
2022-12-25T04:40:27.592Z,2.97
2022-12-25T04:45:30.902Z,3.97
2022-12-25T04:50:34.169Z,3.80
2022-12-25T04:55:38.923Z,4.03
2022-12-25T05:00:42.906Z,4.53
2022-12-25T05:05:46.193Z,3.90
2022-12-25T05:10:51.094Z,5.40
2022-12-25T05:15:54.392Z,3.70
2022-12-25T05:20:57.681Z,4.13
2022-12-25T05:26:04.505Z,4.27
2022-12-25T05:31:07.950Z,3.90
2022-12-25T05:36:12.341Z,3.60
2022-12-25T05:41:17.061Z,4.17
2022-12-25T05:46:20.291Z,5.33
2022-12-25T05:51:24.535Z,5.37
2022-12-25T05:56:29.178Z,4.80
2022-12-25T06:01:32.557Z,4.23
2022-12-25T06:06:35.910Z,5.30
2022-12-25T06:11:40.623Z,5.03
2022-12-25T06:16:44.038Z,5.03
2022-12-25T06:21:47.424Z,5.07
2022-12-25T06:26:52.159Z,4.30
2022-12-25T06:31:57.345Z,5.53
2022-12-25T06:37:00.833Z,5.80
2022-12-25T06:42:05.577Z,6.17
2022-12-25T06:47:08.837Z,7.00
2022-12-25T06:52:12.277Z,5.43
2022-12-25T06:57:17.062Z,6.60
2022-12-25T07:02:22.173Z,8.03
2022-12-25T07:07:25.507Z,5.70
2022-12-25T07:12:30.118Z,6.90
2022-12-25T07:17:35.722Z,7.67
2022-12-25T07:22:39.875Z,7.60
2022-12-25T07:27:44.589Z,6.93
2022-12-25T07:32:50.282Z,7.13
2022-12-25T07:37:53.788Z,5.93
2022-12-25T07:42:58.659Z,5.33
2022-12-25T07:48:05.413Z,6.03
2022-12-25T07:53:09.560Z,7.53
2022-12-25T07:58:17.219Z,6.87
2022-12-25T08:03:24.930Z,6.40
2022-12-25T08:08:28.471Z,4.80
2022-12-25T08:13:33.190Z,5.97
2022-12-25T08:18:37.355Z,6.00
2022-12-25T08:23:42.767Z,4.80
2022-12-25T08:28:47.800Z,5.70
2022-12-25T08:33:51.633Z,5.27
2022-12-25T08:39:02.575Z,4.73
2022-12-25T08:44:08.026Z,5.90
2022-12-25T08:49:11.247Z,5.50
2022-12-25T08:54:14.649Z,5.80
2022-12-25T08:59:19.269Z,4.50
2022-12-25T09:04:22.615Z,5.53
2022-12-25T09:09:27.282Z,5.70
2022-12-25T09:14:36.451Z,4.97
2022-12-25T09:19:39.723Z,4.47
2022-12-25T09:24:43.767Z,4.73
2022-12-25T09:29:48.461Z,4.50
2022-12-25T09:34:51.869Z,4.50
2022-12-25T09:39:58.583Z,5.43
2022-12-25T09:45:05.079Z,5.70
2022-12-25T09:50:12.848Z,6.77
2022-12-25T09:55:20.600Z,6.27
2022-12-25T10:00:26.764Z,5.40
2022-12-25T10:05:42.497Z,4.50
2022-12-25T10:10:50.182Z,4.67
2022-12-25T10:16:00.658Z,5.13
2022-12-25T10:21:11.008Z,5.67
2022-12-25T10:26:17.556Z,5.43
2022-12-25T10:31:22.951Z,5.10
2022-12-25T10:36:27.937Z,5.20
2022-12-25T10:42:07.851Z,4.30
2022-12-25T10:47:14.913Z,4.57
2022-12-25T10:52:20.762Z,5.40
2022-12-25T10:57:25.423Z,4.67
2022-12-25T11:02:32.223Z,4.80
2022-12-25T11:07:54.504Z,5.73
2022-12-25T11:12:59.553Z,5.50
2022-12-25T11:18:04.539Z,6.00
2022-12-25T11:23:10.901Z,5.10
2022-12-25T11:28:17.325Z,6.50
2022-12-25T11:33:22.253Z,5.57
2022-12-25T11:38:28.338Z,5.93
2022-12-25T11:43:35.777Z,5.33
2022-12-25T11:48:42.716Z,5.33
2022-12-25T11:53:48.289Z,5.63
2022-12-25T11:58:53.175Z,6.30
2022-12-25T12:03:58.983Z,6.33
2022-12-25T12:09:07.293Z,5.53
2022-12-25T12:14:22.264Z,5.53
2022-12-25T12:19:28.606Z,4.67
2022-12-25T12:24:35.362Z,5.17
2022-12-25T12:29:41.010Z,6.67
2022-12-25T12:34:50.143Z,6.60
2022-12-25T12:39:54.879Z,6.47
2022-12-25T12:45:00.723Z,6.07
2022-12-25T12:50:06.362Z,7.77
2022-12-25T12:55:13.132Z,6.50
2022-12-25T13:00:18.280Z,6.37
2022-12-25T13:05:34.431Z,6.20
2022-12-25T13:10:40.825Z,5.57
2022-12-25T13:15:50.121Z,5.70
2022-12-25T13:20:56.663Z,4.90
2022-12-25T13:26:00.977Z,4.97
2022-12-25T13:31:07.539Z,5.63
2022-12-25T13:36:13.857Z,4.37
2022-12-25T13:41:37.153Z,4.23
2022-12-25T13:46:40.480Z,3.60
2022-12-25T13:51:46.530Z,3.97
2022-12-25T13:56:51.592Z,3.70
2022-12-25T14:01:57.205Z,2.83
2022-12-25T14:07:09.881Z,3.63
2022-12-25T14:12:19.306Z,3.53
2022-12-25T14:17:23.529Z,2.73
2022-12-25T14:22:28.861Z,3.33
2022-12-25T14:27:32.218Z,3.23
2022-12-25T14:32:51.462Z,3.57
2022-12-25T14:38:00.093Z,3.30
2022-12-25T14:43:05.467Z,3.80
2022-12-25T14:48:22.834Z,3.20
2022-12-25T14:53:33.572Z,3.27
2022-12-25T14:58:41.305Z,3.27
2022-12-25T15:03:44.756Z,2.77
2022-12-25T15:08:57.882Z,3.30
2022-12-25T15:14:01.320Z,3.80
2022-12-25T15:19:04.900Z,3.30
2022-12-25T15:24:12.819Z,4.03
2022-12-25T15:29:16.241Z,3.50
2022-12-25T15:34:21.091Z,2.90
2022-12-25T15:39:25.789Z,3.10
2022-12-25T15:44:29.449Z,2.73
2022-12-25T15:49:32.744Z,5.13
2022-12-25T15:54:37.660Z,4.20
2022-12-25T15:59:41.657Z,3.77
2022-12-25T16:04:45.032Z,4.00
2022-12-25T16:09:50.340Z,3.13
2022-12-25T16:14:53.749Z,3.60
2022-12-25T16:19:57.070Z,3.23
2022-12-25T16:25:01.962Z,4.27
2022-12-25T16:30:05.825Z,4.23
2022-12-25T16:35:09.938Z,4.20
2022-12-25T16:40:15.991Z,2.40
2022-12-25T16:45:19.296Z,3.30
2022-12-25T16:50:23.131Z,2.53
2022-12-25T16:55:30.405Z,2.07
2022-12-25T17:00:33.904Z,2.47
2022-12-25T17:05:37.390Z,2.10
2022-12-25T17:10:41.979Z,1.80
2022-12-25T17:15:50.438Z,1.87
2022-12-25T17:20:54.945Z,2.50
2022-12-25T17:26:02.596Z,2.10
2022-12-25T17:31:06.757Z,1.70
2022-12-25T17:36:12.065Z,1.70
2022-12-25T17:41:17.345Z,2.70
2022-12-25T17:46:23.021Z,1.37
2022-12-25T17:51:27.627Z,0.90
2022-12-25T17:56:33.155Z,1.30
2022-12-25T18:01:37.798Z,1.63
2022-12-25T18:06:41.382Z,1.80
2022-12-25T18:11:46.492Z,1.67
2022-12-25T18:16:49.833Z,1.73
2022-12-25T18:21:54.279Z,1.47
2022-12-25T18:26:59.178Z,1.77
2022-12-25T18:32:02.893Z,1.90
2022-12-25T18:37:06.430Z,2.10
2022-12-25T18:42:34.107Z,5.37
2022-12-25T18:47:37.887Z,3.57
2022-12-25T18:52:50.129Z,2.17
2022-12-25T18:57:56.469Z,2.97
2022-12-25T19:03:00.105Z,3.37
2022-12-25T19:08:03.963Z,1.73
2022-12-25T19:13:08.848Z,2.27
2022-12-25T19:18:12.487Z,2.33
2022-12-25T19:23:16.015Z,2.20
2022-12-25T19:28:20.820Z,1.80
2022-12-25T19:33:24.169Z,1.70
2022-12-25T19:38:27.426Z,2.20
2022-12-25T19:43:33.648Z,2.13
2022-12-25T19:48:37.479Z,3.30
2022-12-25T19:53:40.794Z,1.70
2022-12-25T19:58:45.920Z,1.60
2022-12-25T20:03:49.926Z,2.00
2022-12-25T20:08:54.957Z,2.87
2022-12-25T20:13:59.637Z,1.60
2022-12-25T20:19:02.959Z,1.80
2022-12-25T20:24:09.259Z,2.20
2022-12-25T20:29:14.182Z,2.00
2022-12-25T20:34:17.562Z,2.20
2022-12-25T20:39:20.882Z,2.70
2022-12-25T20:44:26.198Z,2.70
2022-12-25T20:49:32.550Z,1.97
2022-12-25T20:54:35.810Z,2.67
2022-12-25T20:59:41.150Z,2.10
2022-12-25T21:04:47.706Z,2.30
2022-12-25T21:09:56.261Z,2.17
2022-12-25T21:15:00.910Z,2.10
2022-12-25T21:20:04.634Z,1.90
2022-12-25T21:25:08.024Z,1.80
2022-12-25T21:30:15.152Z,2.53
2022-12-25T21:35:19.117Z,1.80
2022-12-25T21:40:22.491Z,1.90
2022-12-25T21:45:27.635Z,2.37
2022-12-25T21:50:48.582Z,1.73
2022-12-25T21:55:59.439Z,2.00
2022-12-25T22:01:04.812Z,1.90
2022-12-25T22:06:25.626Z,1.70
2022-12-25T22:11:49.169Z,2.00
2022-12-25T22:17:11.309Z,2.00
2022-12-25T22:22:15.320Z,1.67
2022-12-25T22:27:18.757Z,2.00
2022-12-25T22:32:23.480Z,1.67
2022-12-25T22:37:31.518Z,1.70
2022-12-25T22:42:38.411Z,1.70
2022-12-25T22:47:43.267Z,2.10
2022-12-25T22:52:48.009Z,1.97
2022-12-25T22:57:52.196Z,1.93
2022-12-25T23:02:57.721Z,2.53
2022-12-25T23:08:01.561Z,2.60
2022-12-25T23:13:23.119Z,2.10
2022-12-25T23:18:45.516Z,2.23
2022-12-25T23:24:06.236Z,2.20
2022-12-25T23:29:26.975Z,2.00
2022-12-25T23:34:31.745Z,2.13
2022-12-25T23:39:35.287Z,2.40
2022-12-25T23:44:38.643Z,2.80
2022-12-25T23:49:43.487Z,2.80
2022-12-25T23:54:46.935Z,3.20
2022-12-25T23:59:50.474Z,4.07
